sensor_id;sensor_type;location;lat;lon;timestamp;temperature;humidity
14798;DHT22;7490;63.708;20.368;2023-02-01T00:00:10;-8.10;85.50
14798;DHT22;7490;63.708;20.368;2023-02-01T00:02:35;-8.10;85.30
14798;DHT22;7490;63.708;20.368;2023-02-01T00:05:05;-8.10;85.10
14798;DHT22;7490;63.708;20.368;2023-02-01T00:07:31;-8.10;85.00
14798;DHT22;7490;63.708;20.368;2023-02-01T00:09:57;-8.20;84.90
14798;DHT22;7490;63.708;20.368;2023-02-01T00:12:22;-8.10;85.00
14798;DHT22;7490;63.708;20.368;2023-02-01T00:14:48;-8.10;84.90
14798;DHT22;7490;63.708;20.368;2023-02-01T00:17:14;-8.10;84.90
14798;DHT22;7490;63.708;20.368;2023-02-01T00:19:39;-8.20;84.80
14798;DHT22;7490;63.708;20.368;2023-02-01T00:22:05;-8.20;84.80
14798;DHT22;7490;63.708;20.368;2023-02-01T00:24:31;-8.20;84.80
14798;DHT22;7490;63.708;20.368;2023-02-01T00:26:56;-8.20;84.80
14798;DHT22;7490;63.708;20.368;2023-02-01T00:29:22;-8.20;85.00
14798;DHT22;7490;63.708;20.368;2023-02-01T00:31:50;-8.20;85.50
14798;DHT22;7490;63.708;20.368;2023-02-01T00:34:16;-8.20;85.80
14798;DHT22;7490;63.708;20.368;2023-02-01T00:36:43;-8.20;85.60
14798;DHT22;7490;63.708;20.368;2023-02-01T00:39:09;-8.20;85.40
14798;DHT22;7490;63.708;20.368;2023-02-01T00:41:35;-8.20;85.30
14798;DHT22;7490;63.708;20.368;2023-02-01T00:44:01;-8.20;85.30
14798;DHT22;7490;63.708;20.368;2023-02-01T00:46:27;-8.20;85.60
14798;DHT22;7490;63.708;20.368;2023-02-01T00:48:53;-8.20;85.90
14798;DHT22;7490;63.708;20.368;2023-02-01T00:51:21;-8.10;86.40
14798;DHT22;7490;63.708;20.368;2023-02-01T00:53:47;-8.10;86.70
14798;DHT22;7490;63.708;20.368;2023-02-01T00:56:13;-8.10;86.80
14798;DHT22;7490;63.708;20.368;2023-02-01T00:58:38;-8.40;86.40
14798;DHT22;7490;63.708;20.368;2023-02-01T01:01:15;-8.00;86.70
14798;DHT22;7490;63.708;20.368;2023-02-01T01:03:43;-8.00;86.70
14798;DHT22;7490;63.708;20.368;2023-02-01T01:06:11;-7.90;86.80
14798;DHT22;7490;63.708;20.368;2023-02-01T01:08:38;-7.90;86.90
14798;DHT22;7490;63.708;20.368;2023-02-01T01:11:08;-7.80;87.10
14798;DHT22;7490;63.708;20.368;2023-02-01T01:13:34;-7.80;86.90
14798;DHT22;7490;63.708;20.368;2023-02-01T01:16:01;-7.70;86.60
14798;DHT22;7490;63.708;20.368;2023-02-01T01:18:29;-7.70;86.40
14798;DHT22;7490;63.708;20.368;2023-02-01T01:20:55;-7.70;86.30
14798;DHT22;7490;63.708;20.368;2023-02-01T01:23:21;-7.60;86.30
14798;DHT22;7490;63.708;20.368;2023-02-01T01:25:46;-7.60;86.30
14798;DHT22;7490;63.708;20.368;2023-02-01T01:28:12;-7.60;86.20
14798;DHT22;7490;63.708;20.368;2023-02-01T01:30:38;-7.50;86.20
14798;DHT22;7490;63.708;20.368;2023-02-01T01:33:03;-7.50;86.20
14798;DHT22;7490;63.708;20.368;2023-02-01T01:35:30;-7.50;86.10
14798;DHT22;7490;63.708;20.368;2023-02-01T01:37:56;-7.40;86.20
14798;DHT22;7490;63.708;20.368;2023-02-01T01:40:23;-7.40;86.20
14798;DHT22;7490;63.708;20.368;2023-02-01T01:42:48;-7.40;86.10
14798;DHT22;7490;63.708;20.368;2023-02-01T01:45:26;-7.40;86.20
14798;DHT22;7490;63.708;20.368;2023-02-01T01:48:00;-7.40;86.40
14798;DHT22;7490;63.708;20.368;2023-02-01T01:53:19;-7.30;86.50
14798;DHT22;7490;63.708;20.368;2023-02-01T01:55:46;-7.30;86.40
14798;DHT22;7490;63.708;20.368;2023-02-01T01:58:16;-7.40;86.20
14798;DHT22;7490;63.708;20.368;2023-02-01T02:00:44;-7.40;86.10
14798;DHT22;7490;63.708;20.368;2023-02-01T02:03:26;-7.30;86.10
14798;DHT22;7490;63.708;20.368;2023-02-01T02:05:55;-7.40;85.90
14798;DHT22;7490;63.708;20.368;2023-02-01T02:08:24;-7.40;85.70
14798;DHT22;7490;63.708;20.368;2023-02-01T02:10:51;-7.40;85.60
14798;DHT22;7490;63.708;20.368;2023-02-01T02:13:41;-7.40;85.70
14798;DHT22;7490;63.708;20.368;2023-02-01T02:21:40;-7.40;86.20
14798;DHT22;7490;63.708;20.368;2023-02-01T02:27:09;-7.40;86.10
14798;DHT22;7490;63.708;20.368;2023-02-01T02:32:35;-7.50;85.50
14798;DHT22;7490;63.708;20.368;2023-02-01T02:37:46;-7.50;85.60
14798;DHT22;7490;63.708;20.368;2023-02-01T02:40:27;-7.50;85.70
14798;DHT22;7490;63.708;20.368;2023-02-01T02:46:21;-7.60;85.80
14798;DHT22;7490;63.708;20.368;2023-02-01T02:49:27;-7.70;85.40
14798;DHT22;7490;63.708;20.368;2023-02-01T02:52:16;-7.80;85.30
14798;DHT22;7490;63.708;20.368;2023-02-01T02:55:03;-7.90;85.50
14798;DHT22;7490;63.708;20.368;2023-02-01T02:57:36;-7.80;85.90
14798;DHT22;7490;63.708;20.368;2023-02-01T03:00:28;-7.90;85.90
14798;DHT22;7490;63.708;20.368;2023-02-01T03:03:13;-7.90;85.90
14798;DHT22;7490;63.708;20.368;2023-02-01T03:05:57;-8.00;85.70
14798;DHT22;7490;63.708;20.368;2023-02-01T03:08:25;-8.00;86.50
14798;DHT22;7490;63.708;20.368;2023-02-01T03:11:07;-8.00;85.70
14798;DHT22;7490;63.708;20.368;2023-02-01T03:24:02;-8.40;84.10
14798;DHT22;7490;63.708;20.368;2023-02-01T03:26:31;-8.20;84.40
14798;DHT22;7490;63.708;20.368;2023-02-01T03:29:05;-8.60;84.30
14798;DHT22;7490;63.708;20.368;2023-02-01T03:31:33;-8.70;84.50
14798;DHT22;7490;63.708;20.368;2023-02-01T03:33:59;-8.70;84.70
14798;DHT22;7490;63.708;20.368;2023-02-01T03:36:26;-8.80;84.90
14798;DHT22;7490;63.708;20.368;2023-02-01T03:39:12;-8.80;85.20
14798;DHT22;7490;63.708;20.368;2023-02-01T03:41:44;-8.90;85.40
14798;DHT22;7490;63.708;20.368;2023-02-01T03:46:49;-8.80;85.60
14798;DHT22;7490;63.708;20.368;2023-02-01T03:49:20;-8.80;85.80
14798;DHT22;7490;63.708;20.368;2023-02-01T03:51:49;-8.80;86.00
14798;DHT22;7490;63.708;20.368;2023-02-01T03:54:17;-8.80;86.00
14798;DHT22;7490;63.708;20.368;2023-02-01T03:56:45;-8.80;86.00
14798;DHT22;7490;63.708;20.368;2023-02-01T03:59:13;-8.70;86.00
14798;DHT22;7490;63.708;20.368;2023-02-01T04:01:39;-8.70;85.80
14798;DHT22;7490;63.708;20.368;2023-02-01T04:04:05;-8.70;85.50
14798;DHT22;7490;63.708;20.368;2023-02-01T04:06:30;-8.70;85.40
14798;DHT22;7490;63.708;20.368;2023-02-01T04:08:56;-8.70;85.40
14798;DHT22;7490;63.708;20.368;2023-02-01T04:11:21;-8.80;85.30
14798;DHT22;7490;63.708;20.368;2023-02-01T04:13:47;-8.80;85.30
14798;DHT22;7490;63.708;20.368;2023-02-01T04:16:13;-8.80;85.50
14798;DHT22;7490;63.708;20.368;2023-02-01T04:18:38;-8.80;85.60
14798;DHT22;7490;63.708;20.368;2023-02-01T04:21:04;-8.80;85.80
14798;DHT22;7490;63.708;20.368;2023-02-01T04:23:30;-8.80;85.90
14798;DHT22;7490;63.708;20.368;2023-02-01T04:26:01;-8.70;86.10
14798;DHT22;7490;63.708;20.368;2023-02-01T04:28:28;-8.70;86.20
14798;DHT22;7490;63.708;20.368;2023-02-01T04:30:53;-8.70;86.20
14798;DHT22;7490;63.708;20.368;2023-02-01T04:33:19;-8.70;86.10
14798;DHT22;7490;63.708;20.368;2023-02-01T04:35:44;-8.60;86.20
14798;DHT22;7490;63.708;20.368;2023-02-01T04:38:11;-8.60;86.20
14798;DHT22;7490;63.708;20.368;2023-02-01T04:40:37;-8.60;86.10
14798;DHT22;7490;63.708;20.368;2023-02-01T04:43:03;-8.60;86.00
14798;DHT22;7490;63.708;20.368;2023-02-01T04:45:29;-8.60;85.90
14798;DHT22;7490;63.708;20.368;2023-02-01T04:47:55;-8.60;85.70
14798;DHT22;7490;63.708;20.368;2023-02-01T04:50:21;-8.50;85.60
14798;DHT22;7490;63.708;20.368;2023-02-01T04:52:46;-8.60;85.60
14798;DHT22;7490;63.708;20.368;2023-02-01T04:55:12;-8.50;85.70
14798;DHT22;7490;63.708;20.368;2023-02-01T04:57:39;-8.60;85.50
14798;DHT22;7490;63.708;20.368;2023-02-01T05:00:07;-8.60;85.30
14798;DHT22;7490;63.708;20.368;2023-02-01T05:02:33;-8.50;85.10
14798;DHT22;7490;63.708;20.368;2023-02-01T05:04:59;-8.60;84.90
14798;DHT22;7490;63.708;20.368;2023-02-01T05:07:24;-8.60;84.90
14798;DHT22;7490;63.708;20.368;2023-02-01T05:09:50;-8.60;84.90
14798;DHT22;7490;63.708;20.368;2023-02-01T05:12:16;-8.60;84.90
14798;DHT22;7490;63.708;20.368;2023-02-01T05:15:00;-8.60;85.00
14798;DHT22;7490;63.708;20.368;2023-02-01T05:17:26;-8.60;84.90
14798;DHT22;7490;63.708;20.368;2023-02-01T05:19:51;-8.60;85.00
14798;DHT22;7490;63.708;20.368;2023-02-01T05:22:17;-8.70;85.20
14798;DHT22;7490;63.708;20.368;2023-02-01T05:24:43;-8.70;85.40
14798;DHT22;7490;63.708;20.368;2023-02-01T05:27:09;-8.60;85.60
14798;DHT22;7490;63.708;20.368;2023-02-01T05:29:34;-8.60;85.40
14798;DHT22;7490;63.708;20.368;2023-02-01T05:32:00;-8.60;85.40
14798;DHT22;7490;63.708;20.368;2023-02-01T05:34:26;-8.60;85.50
14798;DHT22;7490;63.708;20.368;2023-02-01T05:36:51;-8.60;85.40
14798;DHT22;7490;63.708;20.368;2023-02-01T05:39:17;-8.60;85.30
14798;DHT22;7490;63.708;20.368;2023-02-01T05:41:43;-8.60;85.00
14798;DHT22;7490;63.708;20.368;2023-02-01T05:44:10;-8.70;84.80
14798;DHT22;7490;63.708;20.368;2023-02-01T05:46:36;-8.70;84.90
14798;DHT22;7490;63.708;20.368;2023-02-01T05:49:02;-8.60;85.10
14798;DHT22;7490;63.708;20.368;2023-02-01T05:51:27;-8.70;84.90
14798;DHT22;7490;63.708;20.368;2023-02-01T05:53:53;-8.70;85.00
14798;DHT22;7490;63.708;20.368;2023-02-01T05:56:19;-8.70;84.80
14798;DHT22;7490;63.708;20.368;2023-02-01T05:58:44;-8.70;84.70
14798;DHT22;7490;63.708;20.368;2023-02-01T06:01:10;-8.70;84.70
14798;DHT22;7490;63.708;20.368;2023-02-01T06:03:36;-8.80;84.80
14798;DHT22;7490;63.708;20.368;2023-02-01T06:06:01;-8.70;85.10
14798;DHT22;7490;63.708;20.368;2023-02-01T06:08:27;-8.70;85.30
14798;DHT22;7490;63.708;20.368;2023-02-01T06:11:01;-8.70;85.30
14798;DHT22;7490;63.708;20.368;2023-02-01T06:13:27;-8.70;85.40
14798;DHT22;7490;63.708;20.368;2023-02-01T06:15:52;-8.70;85.60
14798;DHT22;7490;63.708;20.368;2023-02-01T06:18:18;-8.70;85.50
14798;DHT22;7490;63.708;20.368;2023-02-01T06:20:44;-8.70;85.60
14798;DHT22;7490;63.708;20.368;2023-02-01T06:23:10;-8.70;85.60
14798;DHT22;7490;63.708;20.368;2023-02-01T06:25:35;-8.70;85.60
14798;DHT22;7490;63.708;20.368;2023-02-01T06:28:03;-8.80;85.30
14798;DHT22;7490;63.708;20.368;2023-02-01T06:30:31;-8.80;85.20
14798;DHT22;7490;63.708;20.368;2023-02-01T06:32:57;-8.80;85.00
14798;DHT22;7490;63.708;20.368;2023-02-01T06:35:22;-8.80;85.10
14798;DHT22;7490;63.708;20.368;2023-02-01T06:37:48;-8.80;85.50
14798;DHT22;7490;63.708;20.368;2023-02-01T06:40:14;-8.80;85.60
14798;DHT22;7490;63.708;20.368;2023-02-01T06:42:39;-8.80;85.60
14798;DHT22;7490;63.708;20.368;2023-02-01T06:45:05;-8.80;85.60
14798;DHT22;7490;63.708;20.368;2023-02-01T06:47:32;-8.70;85.50
14798;DHT22;7490;63.708;20.368;2023-02-01T06:49:58;-8.70;85.50
14798;DHT22;7490;63.708;20.368;2023-02-01T06:52:23;-8.70;85.30
14798;DHT22;7490;63.708;20.368;2023-02-01T06:54:49;-8.70;85.20
14798;DHT22;7490;63.708;20.368;2023-02-01T06:57:14;-8.70;85.10
14798;DHT22;7490;63.708;20.368;2023-02-01T06:59:40;-8.70;85.70
14798;DHT22;7490;63.708;20.368;2023-02-01T07:02:08;-8.70;84.80
14798;DHT22;7490;63.708;20.368;2023-02-01T07:04:34;-8.60;84.90
14798;DHT22;7490;63.708;20.368;2023-02-01T07:07:00;-8.70;84.80
14798;DHT22;7490;63.708;20.368;2023-02-01T07:09:25;-8.70;84.80
14798;DHT22;7490;63.708;20.368;2023-02-01T07:11:51;-8.60;85.10
14798;DHT22;7490;63.708;20.368;2023-02-01T07:14:17;-8.70;85.00
14798;DHT22;7490;63.708;20.368;2023-02-01T07:16:42;-8.70;85.10
14798;DHT22;7490;63.708;20.368;2023-02-01T07:19:08;-8.70;85.00
14798;DHT22;7490;63.708;20.368;2023-02-01T07:21:34;-8.60;85.10
14798;DHT22;7490;63.708;20.368;2023-02-01T07:23:59;-8.60;85.10
14798;DHT22;7490;63.708;20.368;2023-02-01T07:26:25;-8.60;85.10
14798;DHT22;7490;63.708;20.368;2023-02-01T07:28:51;-8.70;85.00
14798;DHT22;7490;63.708;20.368;2023-02-01T07:31:18;-8.70;85.20
14798;DHT22;7490;63.708;20.368;2023-02-01T07:33:46;-8.70;85.30
14798;DHT22;7490;63.708;20.368;2023-02-01T07:36:14;-8.70;85.20
14798;DHT22;7490;63.708;20.368;2023-02-01T07:38:41;-8.70;85.30
14798;DHT22;7490;63.708;20.368;2023-02-01T07:41:07;-8.70;85.20
14798;DHT22;7490;63.708;20.368;2023-02-01T07:43:33;-8.70;85.20
14798;DHT22;7490;63.708;20.368;2023-02-01T07:46:00;-8.70;85.40
14798;DHT22;7490;63.708;20.368;2023-02-01T07:48:26;-8.70;85.60
14798;DHT22;7490;63.708;20.368;2023-02-01T07:53:29;-8.60;85.80
14798;DHT22;7490;63.708;20.368;2023-02-01T07:55:55;-8.60;85.80
14798;DHT22;7490;63.708;20.368;2023-02-01T07:58:22;-8.50;85.80
14798;DHT22;7490;63.708;20.368;2023-02-01T08:00:48;-8.50;85.70
14798;DHT22;7490;63.708;20.368;2023-02-01T08:03:32;-8.50;85.50
14798;DHT22;7490;63.708;20.368;2023-02-01T08:05:58;-8.40;85.30
14798;DHT22;7490;63.708;20.368;2023-02-01T08:08:24;-8.40;85.40
14798;DHT22;7490;63.708;20.368;2023-02-01T08:10:49;-8.40;85.50
14798;DHT22;7490;63.708;20.368;2023-02-01T08:13:16;-8.40;85.40
14798;DHT22;7490;63.708;20.368;2023-02-01T08:15:42;-8.30;86.20
14798;DHT22;7490;63.708;20.368;2023-02-01T08:18:07;-8.30;85.30
14798;DHT22;7490;63.708;20.368;2023-02-01T08:20:35;-8.30;85.40
14798;DHT22;7490;63.708;20.368;2023-02-01T08:23:01;-8.30;85.50
14798;DHT22;7490;63.708;20.368;2023-02-01T08:25:27;-8.20;85.60
14798;DHT22;7490;63.708;20.368;2023-02-01T08:27:54;-8.20;85.60
14798;DHT22;7490;63.708;20.368;2023-02-01T08:30:20;-8.20;85.60
14798;DHT22;7490;63.708;20.368;2023-02-01T08:32:47;-8.10;85.70
14798;DHT22;7490;63.708;20.368;2023-02-01T08:35:13;-8.10;86.60
14798;DHT22;7490;63.708;20.368;2023-02-01T08:37:38;-8.00;86.20
14798;DHT22;7490;63.708;20.368;2023-02-01T08:40:05;-7.80;87.70
14798;DHT22;7490;63.708;20.368;2023-02-01T08:42:31;-7.00;89.70
14798;DHT22;7490;63.708;20.368;2023-02-01T08:45:15;-5.70;90.30
14798;DHT22;7490;63.708;20.368;2023-02-01T08:47:41;-4.30;89.40
14798;DHT22;7490;63.708;20.368;2023-02-01T08:50:07;-3.70;86.70
14798;DHT22;7490;63.708;20.368;2023-02-01T08:52:34;-3.60;84.50
14798;DHT22;7490;63.708;20.368;2023-02-01T08:55:00;-3.80;82.90
14798;DHT22;7490;63.708;20.368;2023-02-01T08:57:25;-4.10;82.50
14798;DHT22;7490;63.708;20.368;2023-02-01T08:59:51;-4.40;82.90
14798;DHT22;7490;63.708;20.368;2023-02-01T09:02:17;-4.50;83.70
14798;DHT22;7490;63.708;20.368;2023-02-01T09:04:43;-4.70;83.40
14798;DHT22;7490;63.708;20.368;2023-02-01T09:07:09;-4.80;83.20
14798;DHT22;7490;63.708;20.368;2023-02-01T09:09:35;-5.00;83.90
14798;DHT22;7490;63.708;20.368;2023-02-01T09:12:02;-5.20;83.20
14798;DHT22;7490;63.708;20.368;2023-02-01T09:14:28;-5.40;83.30
14798;DHT22;7490;63.708;20.368;2023-02-01T09:16:54;-5.50;83.50
14798;DHT22;7490;63.708;20.368;2023-02-01T09:19:20;-5.70;83.60
14798;DHT22;7490;63.708;20.368;2023-02-01T09:21:45;-5.80;84.00
14798;DHT22;7490;63.708;20.368;2023-02-01T09:24:11;-5.90;84.50
14798;DHT22;7490;63.708;20.368;2023-02-01T09:26:37;-6.00;84.70
14798;DHT22;7490;63.708;20.368;2023-02-01T09:29:03;-6.00;84.80
14798;DHT22;7490;63.708;20.368;2023-02-01T09:31:30;-6.00;85.00
14798;DHT22;7490;63.708;20.368;2023-02-01T09:33:56;-6.00;85.10
14798;DHT22;7490;63.708;20.368;2023-02-01T09:36:22;-6.00;85.30
14798;DHT22;7490;63.708;20.368;2023-02-01T09:38:49;-5.90;85.70
14798;DHT22;7490;63.708;20.368;2023-02-01T09:47:16;-5.60;85.50
14798;DHT22;7490;63.708;20.368;2023-02-01T09:52:30;-5.70;85.20
14798;DHT22;7490;63.708;20.368;2023-02-01T09:55:01;-5.60;85.40
14798;DHT22;7490;63.708;20.368;2023-02-01T09:57:41;-5.70;86.20
14798;DHT22;7490;63.708;20.368;2023-02-01T10:00:22;-5.00;89.10
14798;DHT22;7490;63.708;20.368;2023-02-01T10:02:51;-3.60;89.80
14798;DHT22;7490;63.708;20.368;2023-02-01T10:05:49;-2.20;88.40
14798;DHT22;7490;63.708;20.368;2023-02-01T10:08:15;-1.00;85.60
14798;DHT22;7490;63.708;20.368;2023-02-01T10:10:47;-0.70;81.60
14798;DHT22;7490;63.708;20.368;2023-02-01T10:23:59;2.30;80.30
14798;DHT22;7490;63.708;20.368;2023-02-01T10:26:33;2.90;78.90
14798;DHT22;7490;63.708;20.368;2023-02-01T10:29:02;3.50;77.50
14798;DHT22;7490;63.708;20.368;2023-02-01T10:31:33;4.00;76.30
14798;DHT22;7490;63.708;20.368;2023-02-01T10:34:22;4.50;75.20
14798;DHT22;7490;63.708;20.368;2023-02-01T10:37:01;4.80;73.90
14798;DHT22;7490;63.708;20.368;2023-02-01T10:39:27;5.10;73.10
14798;DHT22;7490;63.708;20.368;2023-02-01T10:41:55;5.30;72.00
14798;DHT22;7490;63.708;20.368;2023-02-01T10:44:25;5.50;71.20
14798;DHT22;7490;63.708;20.368;2023-02-01T10:46:51;5.60;70.90
14798;DHT22;7490;63.708;20.368;2023-02-01T10:49:37;5.80;70.60
14798;DHT22;7490;63.708;20.368;2023-02-01T10:52:17;6.00;70.00
14798;DHT22;7490;63.708;20.368;2023-02-01T10:54:44;6.20;69.40
14798;DHT22;7490;63.708;20.368;2023-02-01T10:57:21;6.30;69.10
14798;DHT22;7490;63.708;20.368;2023-02-01T10:59:49;6.40;68.70
14798;DHT22;7490;63.708;20.368;2023-02-01T11:02:35;6.60;68.40
14798;DHT22;7490;63.708;20.368;2023-02-01T11:05:03;6.60;67.90
14798;DHT22;7490;63.708;20.368;2023-02-01T11:07:29;6.60;67.70
14798;DHT22;7490;63.708;20.368;2023-02-01T11:09:56;6.60;67.50
14798;DHT22;7490;63.708;20.368;2023-02-01T11:12:38;6.60;68.20
14798;DHT22;7490;63.708;20.368;2023-02-01T11:15:23;6.80;67.20
14798;DHT22;7490;63.708;20.368;2023-02-01T11:17:52;6.90;66.60
14798;DHT22;7490;63.708;20.368;2023-02-01T11:20:38;7.00;66.40
14798;DHT22;7490;63.708;20.368;2023-02-01T11:23:11;7.10;65.80
14798;DHT22;7490;63.708;20.368;2023-02-01T11:25:37;7.20;65.20
14798;DHT22;7490;63.708;20.368;2023-02-01T11:28:03;7.20;64.70
14798;DHT22;7490;63.708;20.368;2023-02-01T11:30:38;7.30;64.20
14798;DHT22;7490;63.708;20.368;2023-02-01T11:33:12;7.20;63.50
14798;DHT22;7490;63.708;20.368;2023-02-01T11:35:39;7.10;63.50
14798;DHT22;7490;63.708;20.368;2023-02-01T11:38:33;6.90;63.20
14798;DHT22;7490;63.708;20.368;2023-02-01T11:46:41;6.10;63.40
14798;DHT22;7490;63.708;20.368;2023-02-01T11:52:10;4.60;64.30
14798;DHT22;7490;63.708;20.368;2023-02-01T12:12:08;-0.30;76.30
14798;DHT22;7490;63.708;20.368;2023-02-01T12:14:51;-0.70;77.30
14798;DHT22;7490;63.708;20.368;2023-02-01T12:24:18;-1.50;79.70
14798;DHT22;7490;63.708;20.368;2023-02-01T12:27:16;-1.80;80.10
14798;DHT22;7490;63.708;20.368;2023-02-01T12:35:38;-2.20;81.30
14798;DHT22;7490;63.708;20.368;2023-02-01T12:41:28;-2.40;81.70
14798;DHT22;7490;63.708;20.368;2023-02-01T12:44:03;-2.50;81.80
14798;DHT22;7490;63.708;20.368;2023-02-01T12:46:45;-2.60;81.90
14798;DHT22;7490;63.708;20.368;2023-02-01T12:51:55;-2.70;82.20
14798;DHT22;7490;63.708;20.368;2023-02-01T12:57:02;-2.80;82.60
14798;DHT22;7490;63.708;20.368;2023-02-01T12:59:38;-2.90;82.60
14798;DHT22;7490;63.708;20.368;2023-02-01T13:02:12;-2.90;82.70
14798;DHT22;7490;63.708;20.368;2023-02-01T13:04:55;-2.90;82.80
14798;DHT22;7490;63.708;20.368;2023-02-01T13:07:34;-3.00;82.80
14798;DHT22;7490;63.708;20.368;2023-02-01T13:13:18;-3.10;82.90
14798;DHT22;7490;63.708;20.368;2023-02-01T13:16:02;-3.10;83.00
14798;DHT22;7490;63.708;20.368;2023-02-01T13:18:38;-3.10;83.10
14798;DHT22;7490;63.708;20.368;2023-02-01T13:21:13;-3.20;83.00
14798;DHT22;7490;63.708;20.368;2023-02-01T13:23:41;-3.30;82.90
14798;DHT22;7490;63.708;20.368;2023-02-01T13:26:07;-3.30;83.10
14798;DHT22;7490;63.708;20.368;2023-02-01T13:28:55;-3.30;83.10
14798;DHT22;7490;63.708;20.368;2023-02-01T13:31:50;-3.40;83.00
14798;DHT22;7490;63.708;20.368;2023-02-01T13:40:18;-3.50;83.00
14798;DHT22;7490;63.708;20.368;2023-02-01T13:42:54;-3.60;82.90
14798;DHT22;7490;63.708;20.368;2023-02-01T13:45:27;-3.60;82.90
14798;DHT22;7490;63.708;20.368;2023-02-01T13:47:57;-3.70;82.90
14798;DHT22;7490;63.708;20.368;2023-02-01T13:53:01;-3.70;83.10
14798;DHT22;7490;63.708;20.368;2023-02-01T13:55:44;-3.80;83.00
14798;DHT22;7490;63.708;20.368;2023-02-01T13:58:34;-3.80;83.10
14798;DHT22;7490;63.708;20.368;2023-02-01T14:03:49;-3.90;83.10
14798;DHT22;7490;63.708;20.368;2023-02-01T14:11:45;-4.10;83.00
14798;DHT22;7490;63.708;20.368;2023-02-01T14:16:40;-4.20;83.10
14798;DHT22;7490;63.708;20.368;2023-02-01T14:19:26;-4.20;83.20
14798;DHT22;7490;63.708;20.368;2023-02-01T14:21:58;-4.30;83.10
14798;DHT22;7490;63.708;20.368;2023-02-01T14:24:29;-4.30;83.80
14798;DHT22;7490;63.708;20.368;2023-02-01T14:27:19;-4.40;83.10
14798;DHT22;7490;63.708;20.368;2023-02-01T14:29:51;-4.40;83.20
14798;DHT22;7490;63.708;20.368;2023-02-01T14:32:25;-4.50;83.20
14798;DHT22;7490;63.708;20.368;2023-02-01T14:34:53;-4.50;83.10
14798;DHT22;7490;63.708;20.368;2023-02-01T14:50:26;-4.90;82.80
14798;DHT22;7490;63.708;20.368;2023-02-01T14:55:59;-5.00;82.90
14798;DHT22;7490;63.708;20.368;2023-02-01T15:01:01;-5.10;83.00
14798;DHT22;7490;63.708;20.368;2023-02-01T15:06:01;-5.30;83.00
14798;DHT22;7490;63.708;20.368;2023-02-01T15:08:37;-5.30;82.90
14798;DHT22;7490;63.708;20.368;2023-02-01T15:11:14;-5.40;82.80
14798;DHT22;7490;63.708;20.368;2023-02-01T15:13:40;-5.50;83.20
14798;DHT22;7490;63.708;20.368;2023-02-01T15:16:12;-5.50;82.50
14798;DHT22;7490;63.708;20.368;2023-02-01T15:18:39;-5.60;82.30
14798;DHT22;7490;63.708;20.368;2023-02-01T15:21:06;-5.70;82.10
14798;DHT22;7490;63.708;20.368;2023-02-01T15:23:32;-5.80;82.10
14798;DHT22;7490;63.708;20.368;2023-02-01T15:25:59;-5.90;82.10
14798;DHT22;7490;63.708;20.368;2023-02-01T15:28:26;-5.90;82.20
14798;DHT22;7490;63.708;20.368;2023-02-01T15:30:59;-6.00;82.40
14798;DHT22;7490;63.708;20.368;2023-02-01T15:33:26;-6.00;82.40
14798;DHT22;7490;63.708;20.368;2023-02-01T15:38:35;-6.20;82.20
14798;DHT22;7490;63.708;20.368;2023-02-01T15:43:33;-6.30;82.30
14798;DHT22;7490;63.708;20.368;2023-02-01T15:46:01;-6.40;82.50
14798;DHT22;7490;63.708;20.368;2023-02-01T15:48:32;-6.40;82.60
14798;DHT22;7490;63.708;20.368;2023-02-01T15:51:00;-6.40;82.60
14798;DHT22;7490;63.708;20.368;2023-02-01T15:53:27;-6.30;82.60
14798;DHT22;7490;63.708;20.368;2023-02-01T15:55:58;-6.50;82.40
14798;DHT22;7490;63.708;20.368;2023-02-01T15:58:25;-6.50;82.50
14798;DHT22;7490;63.708;20.368;2023-02-01T16:01:00;-6.50;82.40
14798;DHT22;7490;63.708;20.368;2023-02-01T16:03:37;-6.50;82.60
14798;DHT22;7490;63.708;20.368;2023-02-01T16:06:10;-6.50;82.80
14798;DHT22;7490;63.708;20.368;2023-02-01T16:08:36;-6.60;82.90
14798;DHT22;7490;63.708;20.368;2023-02-01T16:13:34;-6.50;83.50
14798;DHT22;7490;63.708;20.368;2023-02-01T16:16:00;-6.40;83.70
14798;DHT22;7490;63.708;20.368;2023-02-01T16:18:26;-6.40;83.80
14798;DHT22;7490;63.708;20.368;2023-02-01T16:20:51;-6.30;83.90
14798;DHT22;7490;63.708;20.368;2023-02-01T16:23:17;-6.20;84.00
14798;DHT22;7490;63.708;20.368;2023-02-01T16:25:44;-6.20;83.90
14798;DHT22;7490;63.708;20.368;2023-02-01T16:28:09;-6.10;83.90
14798;DHT22;7490;63.708;20.368;2023-02-01T16:30:35;-6.10;83.90
14798;DHT22;7490;63.708;20.368;2023-02-01T16:33:02;-6.00;83.90
14798;DHT22;7490;63.708;20.368;2023-02-01T16:35:29;-6.00;84.00
14798;DHT22;7490;63.708;20.368;2023-02-01T16:37:57;-5.90;84.10
14798;DHT22;7490;63.708;20.368;2023-02-01T16:40:23;-5.90;84.00
14798;DHT22;7490;63.708;20.368;2023-02-01T16:42:51;-5.90;84.10
14798;DHT22;7490;63.708;20.368;2023-02-01T16:45:18;-5.80;84.40
14798;DHT22;7490;63.708;20.368;2023-02-01T16:47:48;-5.80;84.70
14798;DHT22;7490;63.708;20.368;2023-02-01T16:50:22;-5.70;84.80
14798;DHT22;7490;63.708;20.368;2023-02-01T16:52:48;-5.60;84.80
14798;DHT22;7490;63.708;20.368;2023-02-01T16:55:15;-5.60;84.80
14798;DHT22;7490;63.708;20.368;2023-02-01T16:57:42;-5.50;84.80
14798;DHT22;7490;63.708;20.368;2023-02-01T17:00:09;-5.50;84.70
14798;DHT22;7490;63.708;20.368;2023-02-01T17:02:35;-5.40;84.80
14798;DHT22;7490;63.708;20.368;2023-02-01T17:05:00;-5.40;84.70
14798;DHT22;7490;63.708;20.368;2023-02-01T17:07:26;-5.40;84.80
14798;DHT22;7490;63.708;20.368;2023-02-01T17:09:52;-5.40;84.60
14798;DHT22;7490;63.708;20.368;2023-02-01T17:14:46;-5.30;84.80
14798;DHT22;7490;63.708;20.368;2023-02-01T17:17:12;-5.30;84.70
14798;DHT22;7490;63.708;20.368;2023-02-01T17:19:37;-5.30;84.80
14798;DHT22;7490;63.708;20.368;2023-02-01T17:22:03;-5.40;84.60
14798;DHT22;7490;63.708;20.368;2023-02-01T17:24:30;-5.40;84.40
14798;DHT22;7490;63.708;20.368;2023-02-01T17:26:56;-5.50;84.20
14798;DHT22;7490;63.708;20.368;2023-02-01T17:29:23;-5.50;84.20
14798;DHT22;7490;63.708;20.368;2023-02-01T17:31:53;-5.60;84.20
14798;DHT22;7490;63.708;20.368;2023-02-01T17:34:20;-5.70;84.10
14798;DHT22;7490;63.708;20.368;2023-02-01T17:36:47;-5.80;84.20
14798;DHT22;7490;63.708;20.368;2023-02-01T17:39:14;-5.80;85.00
14798;DHT22;7490;63.708;20.368;2023-02-01T17:42:00;-5.80;84.50
14798;DHT22;7490;63.708;20.368;2023-02-01T17:44:26;-5.90;84.50
14798;DHT22;7490;63.708;20.368;2023-02-01T17:46:52;-5.90;84.60
14798;DHT22;7490;63.708;20.368;2023-02-01T17:49:17;-5.90;84.90
14798;DHT22;7490;63.708;20.368;2023-02-01T17:51:43;-5.90;85.10
14798;DHT22;7490;63.708;20.368;2023-02-01T17:54:16;-5.80;85.30
14798;DHT22;7490;63.708;20.368;2023-02-01T17:56:44;-5.80;85.40
14798;DHT22;7490;63.708;20.368;2023-02-01T17:59:10;-5.70;85.50
14798;DHT22;7490;63.708;20.368;2023-02-01T18:01:36;-5.60;85.50
14798;DHT22;7490;63.708;20.368;2023-02-01T18:04:02;-5.60;85.50
14798;DHT22;7490;63.708;20.368;2023-02-01T18:06:32;-5.50;85.60
14798;DHT22;7490;63.708;20.368;2023-02-01T18:08:59;-5.40;85.60
14798;DHT22;7490;63.708;20.368;2023-02-01T18:11:24;-5.30;85.60
14798;DHT22;7490;63.708;20.368;2023-02-01T18:13:52;-5.30;85.50
14798;DHT22;7490;63.708;20.368;2023-02-01T18:18:46;-5.20;85.50
14798;DHT22;7490;63.708;20.368;2023-02-01T18:21:13;-5.20;85.50
14798;DHT22;7490;63.708;20.368;2023-02-01T18:23:38;-5.10;85.60